Time;durP1;ratioP1;P1;durP2;ratioP2;P2;SDS_P1;SDS_P2;PMS_P1;PMS_P2;Temp;Humidity;BMP_temperature;BMP_pressure;BME280_temperature;BME280_humidity;BME280_pressure;Samples;Min_cycle;Max_cycle;Signal;HPM_P1;HPM_P2
2022/07/11 00:13:31;;;;;;;5.12;1.50;;;;;;;-149.40;100.00;119126.13;4508494;78;28451;-86
2022/07/11 00:22:38;;;;;;;5.33;1.35;;;;;;;-149.40;100.00;119126.13;4419430;78;28471;-82
2022/07/11 00:47:46;;;;;;;2.33;1.20;;;;;;;-149.40;100.00;119126.13;4494349;78;28570;-81
2022/07/11 00:54:00;;;;;;;3.17;1.50;;;;;;;-149.40;100.00;119126.13;4476383;78;28506;-82
2022/07/11 01:05:16;;;;;;;3.50;1.65;;;;;;;-149.40;100.00;119126.13;4574465;78;28479;-86
2022/07/11 01:18:10;;;;;;;4.90;1.30;;;;;;;-149.40;100.00;119126.13;4387221;81;28997;-84
2022/07/11 01:26:27;;;;;;;4.17;1.50;;;;;;;-149.40;100.00;119126.13;4527183;77;28467;-82
2022/07/11 01:36:48;;;;;;;7.12;1.60;;;;;;;-149.40;100.00;119126.13;4560464;78;28492;-84
2022/07/11 01:45:10;;;;;;;4.20;1.50;;;;;;;-149.40;100.00;119126.13;4483335;79;28500;-84
2022/07/11 01:52:08;;;;;;;9.20;1.40;;;;;;;-149.40;100.00;119126.13;4489956;79;28523;-85
2022/07/11 02:15:43;;;;;;;3.62;1.15;;;;;;;-149.40;100.00;119126.13;4490420;79;28524;-85
2022/07/11 02:27:59;;;;;;;6.47;2.10;;;;;;;-149.40;100.00;119126.13;4412677;81;28494;-84
2022/07/11 02:57:00;;;;;;;5.42;1.98;;;;;;;-149.40;100.00;119126.13;4457585;78;28497;-84
2022/07/11 03:12:48;;;;;;;6.97;2.45;;;;;;;-149.40;100.00;119126.13;4402539;79;28456;-86
2022/07/11 03:21:34;;;;;;;5.00;1.60;;;;;;;-149.40;100.00;119126.13;4412371;81;28503;-85
2022/07/11 03:35:41;;;;;;;6.55;1.98;;;;;;;-149.40;100.00;119126.13;4393873;81;28477;-86
2022/07/11 03:49:49;;;;;;;6.97;1.52;;;;;;;-149.40;100.00;119126.13;4309837;80;28524;-81
2022/07/11 04:03:26;;;;;;;4.15;1.55;;;;;;;-149.40;100.00;119126.13;4354621;80;28497;-81
2022/07/11 04:18:18;;;;;;;5.08;1.90;;;;;;;-149.40;100.00;119126.13;4320190;80;28526;-82
2022/07/11 04:24:48;;;;;;;;;;;;;;;-149.40;100.00;119126.13;4349875;80;28575;-81
2022/07/11 04:31:59;;;;;;;8.63;2.00;;;;;;;-149.40;100.00;119126.13;4330399;80;20574;-83
2022/07/11 04:40:29;;;;;;;5.75;1.80;;;;;;;-149.40;100.00;119126.13;4353641;80;28539;-80
2022/07/11 04:50:15;;;;;;;4.25;1.85;;;;;;;-149.40;100.00;119126.13;4367152;80;28518;-81
2022/07/11 04:57:02;;;;;;;5.20;1.85;;;;;;;-149.40;100.00;119126.13;4353545;80;28523;-81
2022/07/11 05:13:48;;;;;;;4.03;1.70;;;;;;;-149.40;100.00;119126.13;4311338;80;28453;-80
2022/07/11 05:26:55;;;;;;;6.05;1.98;;;;;;;-149.40;100.00;119126.13;4344232;80;28535;-80
2022/07/11 05:41:09;;;;;;;5.20;2.10;;;;;;;-149.40;100.00;119126.13;4474596;78;28561;-79
2022/07/11 05:48:32;;;;;;;3.92;1.82;;;;;;;-149.40;100.00;119126.13;4501623;78;28569;-82
2022/07/11 06:20:24;;;;;;;6.45;1.87;;;;;;;-149.40;100.00;119126.13;4456150;78;28463;-82
2022/07/11 06:26:36;;;;;;;15.80;2.70;;;;;;;-149.40;100.00;119126.13;4491831;78;28770;-83
2022/07/11 06:32:49;;;;;;;5.40;2.12;;;;;;;-149.40;100.00;119126.13;4496777;78;28565;-83
2022/07/11 06:49:37;;;;;;;7.33;2.70;;;;;;;-149.40;100.00;119126.13;4497314;78;28456;-83
2022/07/11 07:01:05;;;;;;;6.60;2.12;;;;;;;-149.40;100.00;119126.13;4497070;78;28484;-83
2022/07/11 07:10:37;;;;;;;6.20;2.67;;;;;;;-149.40;100.00;119126.13;4498197;78;28538;-82
2022/07/11 07:18:38;;;;;;;7.15;2.20;;;;;;;-149.40;100.00;119126.13;4499251;78;28608;-83
2022/07/11 07:40:58;;;;;;;6.28;2.00;;;;;;;-149.40;100.00;119126.13;4497483;78;28585;-84
2022/07/11 09:03:47;;;;;;;8.78;2.75;;;;;;;-149.40;100.00;119126.13;4453856;78;28575;-83
2022/07/11 09:31:33;;;;;;;3.90;1.60;;;;;;;-149.40;100.00;119126.13;4460505;78;28526;-83
2022/07/11 11:16:12;;;;;;;5.67;1.30;;;;;;;-149.40;100.00;119126.13;4444133;78;28571;-79
2022/07/11 11:24:02;;;;;;;3.95;1.20;;;;;;;-149.40;100.00;119126.13;4504531;76;28516;-81
2022/07/11 11:56:40;;;;;;;2.62;0.80;;;;;;;-149.40;100.00;119126.13;4467606;78;28558;-80
2022/07/11 14:09:43;;;;;;;0.85;0.60;;;;;;;-149.40;100.00;119126.13;4499754;77;28590;-81
2022/07/11 15:41:49;;;;;;;1.02;0.47;;;;;;;-149.40;100.00;119126.13;4503994;77;28680;-78
2022/07/11 15:49:32;;;;;;;1.47;0.30;;;;;;;-149.40;100.00;119126.13;4458748;77;28599;-78
2022/07/11 16:56:01;;;;;;;0.57;0.40;;;;;;;-149.40;100.00;119126.13;4358373;80;28552;-76
2022/07/11 17:08:44;;;;;;;2.05;0.50;;;;;;;-149.40;100.00;119126.13;4329452;80;28532;-75
2022/07/11 17:15:35;;;;;;;0.72;0.40;;;;;;;-149.40;100.00;119126.13;4447487;77;28519;-76
2022/07/11 17:22:35;;;;;;;1.10;0.70;;;;;;;-149.40;100.00;119126.13;4460894;77;28489;-75
2022/07/11 18:33:40;;;;;;;2.10;0.40;;;;;;;-149.40;100.00;119126.13;4430561;77;28563;-75
2022/07/11 18:52:32;;;;;;;2.37;0.50;;;;;;;-149.40;100.00;119126.13;4422733;77;28575;-76
2022/07/11 19:29:28;;;;;;;3.52;0.40;;;;;;;-149.40;100.00;119126.13;4482199;77;28575;-77
2022/07/11 19:36:03;;;;;;;1.12;0.40;;;;;;;-149.40;100.00;119126.13;4484275;78;28555;-79
2022/07/11 19:43:36;;;;;;;3.12;0.50;;;;;;;-149.40;100.00;119126.13;4501369;77;28551;-79
2022/07/11 20:09:23;;;;;;;0.93;0.50;;;;;;;-149.40;100.00;119126.13;4493049;78;28480;-79
2022/07/11 20:25:41;;;;;;;2.50;0.93;;;;;;;-149.40;100.00;119126.13;4476512;78;28539;-81
2022/07/11 20:43:42;;;;;;;1.00;0.60;;;;;;;-149.40;100.00;119126.13;4438871;79;28585;-82
2022/07/11 20:56:20;;;;;;;2.12;0.60;;;;;;;-149.40;100.00;119126.13;4464992;78;28476;-84
2022/07/11 21:09:03;;;;;;;0.90;0.57;;;;;;;-149.40;100.00;119126.13;4478072;78;28537;-81
2022/07/11 21:16:31;;;;;;;1.20;0.95;;;;;;;-149.40;100.00;119126.13;4500003;77;28492;-82
2022/07/11 21:24:05;;;;;;;1.62;0.78;;;;;;;-149.40;100.00;119126.13;4505025;77;28463;-85
2022/07/11 21:57:48;;;;;;;1.67;0.78;;;;;;;-149.40;100.00;119126.13;4430498;77;28540;-79
2022/07/11 22:04:58;;;;;;;1.55;1.00;;;;;;;-149.40;100.00;119126.13;4490410;77;28618;-79
2022/07/11 22:11:16;;;;;;;1.22;0.90;;;;;;;-149.40;100.00;119126.13;4455732;78;28655;-79
2022/07/11 22:17:34;;;;;;;1.47;0.98;;;;;;;-149.40;100.00;119126.13;4475931;78;28444;-80
2022/07/11 22:24:07;;;;;;;2.87;1.00;;;;;;;-149.40;100.00;119126.13;4492319;78;28541;-79
2022/07/11 22:31:31;;;;;;;1.35;0.90;;;;;;;-149.40;100.00;119126.13;4494318;78;28608;-79
2022/07/11 22:39:02;;;;;;;2.50;1.00;;;;;;;-149.40;100.00;119126.13;4492453;78;28539;-80
2022/07/11 22:46:16;;;;;;;1.95;0.98;;;;;;;-149.40;100.00;119126.13;4492676;78;28583;-78
